Time;durP1;ratioP1;P1;durP2;ratioP2;P2;SDS_P1;SDS_P2;PMS_P1;PMS_P2;Temp;Humidity;BMP_temperature;BMP_pressure;BME280_temperature;BME280_humidity;BME280_pressure;Samples;Min_cycle;Max_cycle;Signal;HPM_P1;HPM_P2
2021/03/19 00:01:38;;;;;;;26.50;17.40;;;;;;;1.93;97.09;101091.38;5010437;28;20033;-71
2021/03/19 00:04:05;;;;;;;24.83;18.30;;;;;;;1.96;96.94;101087.91;5014783;28;20042;-70
2021/03/19 00:06:33;;;;;;;29.20;19.40;;;;;;;1.73;97.44;101083.06;5008747;28;20533;-70
2021/03/19 00:09:01;;;;;;;28.17;19.38;;;;;;;1.75;98.02;101082.16;4980305;28;20061;-70
2021/03/19 00:11:28;;;;;;;29.98;19.83;;;;;;;1.80;97.88;101076.88;5011939;28;20064;-72
2021/03/19 00:13:54;;;;;;;28.05;19.50;;;;;;;1.78;98.34;101079.50;5018124;28;20125;-70
2021/03/19 00:16:21;;;;;;;28.08;19.70;;;;;;;1.82;98.09;101085.53;5009627;28;20072;-70
2021/03/19 00:18:48;;;;;;;29.55;20.52;;;;;;;1.43;98.60;101093.00;5016954;28;20136;-70
2021/03/19 00:21:15;;;;;;;32.08;21.42;;;;;;;1.23;99.40;101102.81;5023704;28;20762;-69
2021/03/19 00:23:42;;;;;;;37.67;21.60;;;;;;;1.27;100.00;101096.69;5016115;28;20057;-71
2021/03/19 00:26:09;;;;;;;38.33;25.35;;;;;;;1.04;100.00;101098.69;5012593;28;20045;-71
2021/03/19 00:28:36;;;;;;;38.80;25.50;;;;;;;0.94;100.00;101101.41;4993054;28;20077;-69
2021/03/19 00:31:03;;;;;;;37.45;25.13;;;;;;;0.88;100.00;101104.06;5010751;28;20461;-69
2021/03/19 00:33:29;;;;;;;37.85;25.88;;;;;;;0.94;100.00;101108.31;5006451;28;20097;-70
2021/03/19 00:35:56;;;;;;;39.78;25.90;;;;;;;1.13;100.00;101107.25;5011061;28;20056;-69
2021/03/19 00:38:23;;;;;;;41.33;26.05;;;;;;;1.23;100.00;101110.59;5010271;28;20086;-70
2021/03/19 00:40:50;;;;;;;41.70;25.67;;;;;;;1.22;100.00;101116.66;4997092;28;20045;-70
2021/03/19 00:43:17;;;;;;;38.60;23.55;;;;;;;1.36;100.00;101121.66;5003056;28;20057;-70
2021/03/19 00:45:44;;;;;;;42.50;25.80;;;;;;;1.22;100.00;101129.63;5006591;28;20477;-70
2021/03/19 00:48:12;;;;;;;41.67;25.67;;;;;;;1.39;100.00;101131.97;5003628;28;20119;-70
2021/03/19 00:50:50;;;;;;;41.17;25.40;;;;;;;1.27;100.00;101122.63;5013932;28;20045;-69
2021/03/19 00:53:17;;;;;;;41.03;26.02;;;;;;;1.18;100.00;101127.94;5006805;28;20060;-69
2021/03/19 00:55:44;;;;;;;41.33;25.25;;;;;;;1.29;100.00;101130.38;5017932;28;20061;-70
2021/03/19 00:58:11;;;;;;;38.97;23.17;;;;;;;1.06;100.00;101130.66;4985461;28;20057;-70
2021/03/19 01:00:38;;;;;;;41.45;24.95;;;;;;;0.97;100.00;101142.00;5015923;28;20075;-70
2021/03/19 01:03:05;;;;;;;39.80;23.45;;;;;;;0.99;100.00;101137.63;5011233;28;20088;-70
2021/03/19 01:05:52;;;;;;;40.10;23.63;;;;;;;0.93;100.00;101148.09;5006662;28;20077;-69
2021/03/19 01:08:19;;;;;;;34.08;20.15;;;;;;;1.03;100.00;101144.50;5014398;28;20072;-69
2021/03/19 01:10:51;;;;;;;35.33;19.92;;;;;;;0.94;100.00;101142.88;4987890;28;20045;-70
2021/03/19 01:13:18;;;;;;;33.55;19.25;;;;;;;0.92;100.00;101142.06;5008872;28;20107;-71
2021/03/19 01:15:45;;;;;;;33.33;18.58;;;;;;;0.83;100.00;101136.97;5009537;28;20041;-69
2021/03/19 01:18:16;;;;;;;30.05;18.25;;;;;;;0.72;100.00;101144.88;5015008;28;20054;-69
2021/03/19 01:20:44;;;;;;;28.38;17.90;;;;;;;0.80;100.00;101139.59;4996806;28;20091;-70
2021/03/19 01:23:11;;;;;;;35.05;18.85;;;;;;;0.74;100.00;101140.50;5005719;28;20057;-70
2021/03/19 01:25:39;;;;;;;35.92;18.83;;;;;;;0.63;99.56;101144.06;5013382;28;20481;-69
2021/03/19 01:28:06;;;;;;;32.13;17.67;;;;;;;0.62;99.80;101145.81;4984025;28;20127;-70
2021/03/19 01:30:36;;;;;;;31.83;17.92;;;;;;;0.47;100.00;101149.41;4992921;28;20539;-69
2021/03/19 01:33:04;;;;;;;30.55;18.85;;;;;;;0.42;100.00;101147.75;5002708;28;20137;-70
2021/03/19 01:35:37;;;;;;;28.75;16.45;;;;;;;0.61;99.33;101146.69;5007401;28;20743;-69
2021/03/19 01:38:04;;;;;;;26.65;14.65;;;;;;;0.64;98.25;101148.41;4973736;28;20065;-70
2021/03/19 01:40:37;;;;;;;27.38;15.52;;;;;;;0.61;98.65;101145.84;4995199;28;20057;-70
2021/03/19 01:43:16;;;;;;;24.27;13.73;;;;;;;0.76;98.98;101148.25;5004295;28;20521;-70
2021/03/19 01:46:20;;;;;;;27.00;15.18;;;;;;;0.69;97.20;101149.22;5017038;28;20056;-68
2021/03/19 01:49:26;;;;;;;26.98;13.15;;;;;;;0.43;98.33;101141.69;5029391;28;20053;-67
2021/03/19 01:52:31;;;;;;;24.35;13.48;;;;;;;0.33;99.72;101143.50;5007753;28;20077;-69
2021/03/19 01:55:37;;;;;;;21.38;12.95;;;;;;;0.44;99.54;101148.56;5006408;28;20061;-69
2021/03/19 01:58:41;;;;;;;24.63;13.93;;;;;;;0.40;98.22;101146.88;5010147;28;20524;-71
2021/03/19 02:01:46;;;;;;;28.02;14.27;;;;;;;0.39;98.79;101152.94;5005213;28;20042;-71
2021/03/19 02:04:50;;;;;;;30.38;15.63;;;;;;;0.38;98.04;101153.81;5004595;28;20045;-72
2021/03/19 02:07:54;;;;;;;34.88;16.08;;;;;;;0.23;98.26;101155.66;5012374;28;20597;-71
2021/03/19 02:11:12;;;;;;;40.00;19.08;;;;;;;0.11;98.70;101152.31;5011302;28;20640;-70
2021/03/19 02:13:57;;;;;;;;;;;;;;;0.07;99.24;101156.66;4989561;28;20067;-72
2021/03/19 02:17:01;;;;;;;43.05;17.73;;;;;;;-0.03;100.00;101155.00;5014061;28;21529;-71
2021/03/19 02:20:05;;;;;;;46.47;19.80;;;;;;;-0.05;100.00;101156.72;5015032;28;20057;-72
2021/03/19 02:23:11;;;;;;;42.60;18.92;;;;;;;0.13;100.00;101141.06;5023689;28;20045;-71
2021/03/19 02:26:15;;;;;;;50.00;20.02;;;;;;;0.15;100.00;101147.09;5011796;28;20045;-71
2021/03/19 02:29:19;;;;;;;54.65;20.42;;;;;;;0.21;100.00;101146.19;5011698;28;20053;-71
2021/03/19 02:32:13;;;;;;;50.17;21.80;;;;;;;0.19;100.00;101150.53;5008301;28;20909;-71
2021/03/19 02:34:45;;;;;;;62.03;22.17;;;;;;;-0.07;100.00;101151.56;4995041;28;20050;-70
2021/03/19 02:37:16;;;;;;;56.13;22.08;;;;;;;-0.21;100.00;101150.81;5011591;28;20076;-71
2021/03/19 02:39:43;;;;;;;66.78;23.63;;;;;;;-0.33;100.00;101154.31;5012382;28;20060;-71
2021/03/19 02:42:11;;;;;;;65.63;22.33;;;;;;;-0.33;100.00;101161.22;5006646;28;20595;-70
2021/03/19 02:44:38;;;;;;;62.58;22.88;;;;;;;-0.26;100.00;101158.59;5007902;28;20058;-72
2021/03/19 02:47:06;;;;;;;63.58;25.45;;;;;;;-0.40;100.00;101168.16;5008902;28;20046;-70
2021/03/19 02:49:33;;;;;;;67.60;24.63;;;;;;;-0.41;100.00;101175.91;5012178;28;20053;-72
2021/03/19 02:52:19;;;;;;;66.28;22.75;;;;;;;-0.42;100.00;101175.06;4994726;28;20524;-71
2021/03/19 02:54:46;;;;;;;61.15;23.85;;;;;;;-0.38;100.00;101170.72;4994912;28;20065;-71
2021/03/19 02:57:13;;;;;;;74.25;26.00;;;;;;;-0.46;100.00;101170.75;5014125;28;20064;-73
2021/03/19 02:59:40;;;;;;;66.15;26.23;;;;;;;-0.58;100.00;101176.88;5013209;28;20156;-71
2021/03/19 03:02:07;;;;;;;75.07;25.67;;;;;;;-0.65;100.00;101176.91;5013256;28;20060;-71
2021/03/19 03:04:34;;;;;;;72.85;26.15;;;;;;;-0.55;100.00;101179.41;5017058;28;20057;-71
2021/03/19 03:07:01;;;;;;;79.32;26.92;;;;;;;-0.41;100.00;101187.13;5033571;28;20112;-72
2021/03/19 03:09:31;;;;;;;65.88;25.20;;;;;;;-0.41;100.00;101188.84;5007958;28;20068;-69
2021/03/19 03:12:00;;;;;;;63.25;22.25;;;;;;;-0.25;100.00;101190.50;5006238;28;20065;-71
2021/03/19 03:14:30;;;;;;;58.42;22.17;;;;;;;-0.32;100.00;101197.41;4985902;28;20060;-70
2021/03/19 03:17:02;;;;;;;66.40;25.30;;;;;;;-0.28;100.00;101188.78;4994507;28;20092;-72
2021/03/19 03:19:29;;;;;;;63.17;21.67;;;;;;;-0.33;100.00;101198.28;5013644;28;20070;-71
2021/03/19 03:21:57;;;;;;;67.38;23.73;;;;;;;-0.20;100.00;101193.91;5011695;28;20068;-70
2021/03/19 03:24:25;;;;;;;72.43;25.23;;;;;;;-0.04;100.00;101202.47;5011457;28;20057;-71
2021/03/19 03:26:52;;;;;;;79.28;25.27;;;;;;;-0.11;100.00;101190.41;5010948;28;20050;-71
2021/03/19 03:29:21;;;;;;;75.88;27.52;;;;;;;-0.16;100.00;101195.63;5015688;28;20080;-72
2021/03/19 03:31:48;;;;;;;67.97;24.25;;;;;;;-0.15;100.00;101199.91;5007833;28;20160;-71
2021/03/19 03:34:16;;;;;;;64.45;24.98;;;;;;;0.03;100.00;101203.28;5012937;28;20052;-72
2021/03/19 03:36:44;;;;;;;70.32;23.85;;;;;;;0.05;100.00;101196.38;5008946;28;20426;-72
2021/03/19 03:39:15;;;;;;;62.50;23.45;;;;;;;-0.14;100.00;101201.63;5012342;28;20409;-73
2021/03/19 03:41:43;;;;;;;62.25;24.27;;;;;;;-0.18;100.00;101202.53;5010868;28;21536;-71
2021/03/19 03:44:13;;;;;;;71.50;27.45;;;;;;;-0.18;100.00;101188.72;5011791;28;20509;-71
2021/03/19 03:46:40;;;;;;;76.03;26.15;;;;;;;-0.33;100.00;101202.59;4998283;28;20525;-70
2021/03/19 03:49:08;;;;;;;70.40;24.50;;;;;;;-0.32;100.00;101199.16;5028541;28;20048;-70
2021/03/19 03:51:34;;;;;;;73.95;25.95;;;;;;;-0.59;100.00;101202.72;4997153;28;20074;-70
2021/03/19 03:54:01;;;;;;;81.03;27.10;;;;;;;-0.53;100.00;101200.13;5009292;28;20848;-72
2021/03/19 03:56:28;;;;;;;77.07;29.45;;;;;;;-0.56;100.00;101207.88;5008782;28;20057;-70
2021/03/19 03:58:56;;;;;;;85.72;28.10;;;;;;;-0.59;100.00;101210.47;4995234;28;20056;-70
2021/03/19 04:01:23;;;;;;;93.63;30.90;;;;;;;-0.71;100.00;101216.56;4993915;28;20054;-73
2021/03/19 04:03:51;;;;;;;89.35;29.30;;;;;;;-0.76;100.00;101210.56;5000112;28;20049;-73
2021/03/19 04:06:18;;;;;;;102.22;30.77;;;;;;;-0.89;100.00;101216.63;5018710;28;20308;-71
2021/03/19 04:08:45;;;;;;;101.72;32.17;;;;;;;-0.89;100.00;101212.31;4995881;28;20045;-71
2021/03/19 04:11:15;;;;;;;92.13;33.03;;;;;;;-0.94;100.00;101216.63;4994784;28;20068;-70
2021/03/19 04:13:42;;;;;;;103.15;31.77;;;;;;;-0.98;100.00;101217.50;5007982;28;20477;-72
2021/03/19 04:16:10;;;;;;;99.68;34.70;;;;;;;-1.02;100.00;101216.63;5011549;28;20042;-71
2021/03/19 04:18:37;;;;;;;96.20;33.72;;;;;;;-1.05;100.00;101223.53;4980697;28;20049;-71
2021/03/19 04:21:07;;;;;;;109.55;35.42;;;;;;;-1.14;100.00;101221.81;5026550;28;20489;-72
2021/03/19 04:23:40;;;;;;;100.72;34.17;;;;;;;-1.04;100.00;101226.13;5005630;28;20049;-71
2021/03/19 04:26:14;;;;;;;112.07;35.88;;;;;;;-0.99;100.00;101227.81;5000482;28;20068;-72
2021/03/19 04:28:41;;;;;;;88.53;29.87;;;;;;;-0.81;100.00;101225.19;5001255;28;20045;-74
2021/03/19 04:31:08;;;;;;;106.20;32.53;;;;;;;-0.81;100.00;101230.34;5002219;28;20136;-70
2021/03/19 04:33:35;;;;;;;92.65;30.02;;;;;;;-0.74;100.00;101232.06;5009513;28;20053;-71
2021/03/19 04:36:14;;;;;;;91.55;29.70;;;;;;;-0.72;100.00;101243.28;5012605;28;20042;-73
2021/03/19 04:38:42;;;;;;;84.95;31.17;;;;;;;-0.67;100.00;101241.56;5016170;28;20089;-71
2021/03/19 04:41:09;;;;;;;87.63;30.40;;;;;;;-0.75;100.00;101251.03;4998141;28;20052;-71
2021/03/19 04:43:36;;;;;;;83.85;34.00;;;;;;;-0.92;100.00;101245.91;5006672;28;20049;-72
2021/03/19 04:46:03;;;;;;;82.60;33.53;;;;;;;-0.94;100.00;101252.81;5005963;28;20052;-71
2021/03/19 04:48:30;;;;;;;89.75;33.83;;;;;;;-0.89;100.00;101251.06;5025474;28;20085;-71
2021/03/19 04:50:57;;;;;;;91.38;33.58;;;;;;;-0.92;100.00;101250.22;5019059;28;20136;-70
2021/03/19 04:53:27;;;;;;;87.60;32.50;;;;;;;-0.88;100.00;101262.28;5011588;28;20735;-71
2021/03/19 04:55:54;;;;;;;91.97;33.22;;;;;;;-0.86;100.00;101268.28;4997551;28;20064;-71
2021/03/19 04:58:21;;;;;;;79.80;32.85;;;;;;;-0.89;100.00;101274.34;5008797;28;20068;-71
2021/03/19 05:00:48;;;;;;;89.65;31.15;;;;;;;-0.80;100.00;101263.97;4996188;28;20045;-71
2021/03/19 05:03:14;;;;;;;73.00;30.05;;;;;;;-0.73;100.00;101269.13;5009875;28;20057;-71
2021/03/19 05:05:41;;;;;;;75.97;29.20;;;;;;;-0.80;100.00;101269.16;4994601;28;20584;-72
2021/03/19 05:08:08;;;;;;;74.22;31.20;;;;;;;-0.84;100.00;101267.44;5007723;28;20165;-71
2021/03/19 05:10:36;;;;;;;64.80;28.23;;;;;;;-0.84;100.00;101262.25;5011332;28;20037;-73
2021/03/19 05:13:05;;;;;;;72.25;30.00;;;;;;;-0.83;100.00;101268.28;5012171;28;20060;-72
2021/03/19 05:15:34;;;;;;;57.28;26.80;;;;;;;-0.72;100.00;101278.59;5046103;23;20212;-71
2021/03/19 05:18:01;;;;;;;63.85;26.80;;;;;;;-0.73;100.00;101263.97;5028018;28;20059;-72
2021/03/19 05:20:28;;;;;;;62.22;25.02;;;;;;;-0.81;100.00;101269.13;5031967;28;20112;-72
2021/03/19 05:22:55;;;;;;;49.50;22.10;;;;;;;-0.86;100.00;101268.28;5030215;28;20068;-72
2021/03/19 05:25:26;;;;;;;51.97;23.50;;;;;;;-0.92;100.00;101268.31;4993293;28;20389;-71
2021/03/19 05:27:58;;;;;;;57.10;24.60;;;;;;;-0.96;100.00;101264.00;4991643;28;20046;-73
2021/03/19 05:30:26;;;;;;;65.60;25.30;;;;;;;-0.90;100.00;101257.13;4990227;28;20306;-72
2021/03/19 05:32:54;;;;;;;57.25;24.98;;;;;;;-0.75;100.00;101268.28;5002409;28;20055;-72
2021/03/19 05:35:22;;;;;;;61.00;25.13;;;;;;;-0.99;100.00;101277.81;5000817;28;20050;-72
2021/03/19 05:37:50;;;;;;;57.78;26.48;;;;;;;-0.82;100.00;101272.59;5011618;28;20462;-72
2021/03/19 05:40:40;;;;;;;49.67;22.65;;;;;;;-0.53;100.00;101270.81;5010756;28;20742;-72
2021/03/19 05:43:22;;;;;;;52.38;23.55;;;;;;;-0.25;98.35;101275.88;4977239;28;20061;-73
2021/03/19 05:45:52;;;;;;;49.95;21.98;;;;;;;-0.25;97.30;101278.47;5007365;28;20061;-73
2021/03/19 05:48:19;;;;;;;45.88;22.38;;;;;;;-0.27;96.08;101275.00;5003539;28;20085;-72
2021/03/19 05:50:46;;;;;;;39.08;20.92;;;;;;;-0.19;96.59;101277.56;4995034;28;20116;-73
2021/03/19 05:53:16;;;;;;;45.65;20.70;;;;;;;0.06;94.62;101278.31;4961749;28;20058;-73
2021/03/19 05:55:43;;;;;;;40.13;20.65;;;;;;;0.10;93.99;101275.72;4997492;28;20060;-73
2021/03/19 05:58:24;;;;;;;40.65;20.98;;;;;;;0.21;94.14;101281.69;5006705;28;20057;-74
2021/03/19 06:00:58;;;;;;;41.42;20.55;;;;;;;0.28;93.59;101282.53;5005547;28;20523;-72
2021/03/19 06:03:25;;;;;;;37.63;20.80;;;;;;;0.25;92.76;101292.88;4995015;28;20058;-73
2021/03/19 06:06:01;;;;;;;43.28;21.27;;;;;;;0.46;93.50;101286.72;5011516;28;20351;-73
2021/03/19 06:08:35;;;;;;;;;;;;;;;0.52;92.76;101296.16;4993027;28;20840;-74
2021/03/19 06:11:07;;;;;;;43.92;20.67;;;;;;;0.23;93.55;101312.75;4999205;28;19925;-72
2021/03/19 06:13:41;;;;;;;42.78;21.13;;;;;;;0.62;91.76;101303.84;4989819;28;20068;-72
2021/03/19 06:16:30;;;;;;;39.40;19.55;;;;;;;0.40;92.50;101313.50;4991548;28;20081;-72
2021/03/19 06:19:00;;;;;;;39.33;20.85;;;;;;;0.03;93.75;101310.25;4996259;28;20062;-73
2021/03/19 06:21:33;;;;;;;46.33;20.20;;;;;;;0.06;93.61;101311.97;4982336;28;20061;-73
2021/03/19 06:24:07;;;;;;;35.90;19.55;;;;;;;0.07;94.16;101317.13;4995669;28;20389;-73
2021/03/19 06:26:37;;;;;;;45.25;21.33;;;;;;;-0.12;94.38;101321.53;4994805;28;20512;-73
2021/03/19 06:29:27;;;;;;;47.22;21.00;;;;;;;-0.24;95.22;101328.47;4993330;28;20056;-73
2021/03/19 06:32:13;;;;;;;40.10;21.83;;;;;;;-0.30;95.61;101331.97;4997635;28;20148;-73
2021/03/19 06:34:54;;;;;;;38.88;19.77;;;;;;;-0.17;94.92;101331.06;5008240;28;20060;-73
2021/03/19 06:37:31;;;;;;;51.47;22.17;;;;;;;-0.36;96.43;101329.38;5009276;28;20094;-72
2021/03/19 06:40:00;;;;;;;45.40;20.05;;;;;;;0.25;93.27;101323.97;5008388;28;20529;-74
2021/03/19 06:42:26;;;;;;;33.38;17.83;;;;;;;0.41;90.69;101325.59;5011645;28;20057;-73
2021/03/19 06:45:13;;;;;;;41.08;18.67;;;;;;;0.61;89.72;101330.66;4976487;28;20046;-72
2021/03/19 06:47:52;;;;;;;31.52;17.90;;;;;;;0.27;91.44;101330.00;5012004;28;20045;-72
2021/03/19 06:50:22;;;;;;;28.88;16.88;;;;;;;0.23;91.14;101346.44;5011444;28;20050;-73
2021/03/19 06:53:11;;;;;;;32.97;18.25;;;;;;;0.28;91.68;101342.09;4995201;28;20045;-73
2021/03/19 06:55:44;;;;;;;36.47;18.35;;;;;;;0.70;90.05;101355.63;4998731;28;20056;-72
2021/03/19 06:58:11;;;;;;;24.95;15.23;;;;;;;1.63;86.24;101359.19;4981534;28;20053;-73
2021/03/19 07:00:44;;;;;;;25.95;14.88;;;;;;;1.65;83.89;101360.00;4999019;28;20045;-71
2021/03/19 07:03:38;;;;;;;27.15;15.65;;;;;;;2.91;79.26;101352.31;5010723;28;20056;-73
2021/03/19 07:06:46;;;;;;;25.30;13.93;;;;;;;4.63;72.62;101360.28;4977748;28;20064;-79
2021/03/19 07:09:22;;;;;;;21.75;12.95;;;;;;;2.43;78.74;101372.94;4975711;28;20442;-76
2021/03/19 07:11:57;;;;;;;22.30;13.43;;;;;;;3.10;76.25;101367.59;5009611;28;20054;-75
2021/03/19 07:14:48;;;;;;;22.15;13.93;;;;;;;2.94;76.13;101365.25;4991883;28;20547;-76
2021/03/19 07:17:47;;;;;;;23.80;13.55;;;;;;;3.74;73.30;101369.97;5000529;28;20068;-75
2021/03/19 07:20:16;;;;;;;24.40;13.20;;;;;;;3.48;75.31;101374.78;5019968;28;20061;-75
2021/03/19 07:23:10;;;;;;;22.38;13.40;;;;;;;3.37;74.57;101374.94;4991077;28;20042;-75
2021/03/19 07:25:51;;;;;;;25.38;14.20;;;;;;;2.05;79.88;101383.81;4997016;28;20057;-75
2021/03/19 07:28:32;;;;;;;23.77;12.30;;;;;;;2.66;78.46;101390.81;4983905;28;20042;-75
2021/03/19 07:31:22;;;;;;;24.73;14.07;;;;;;;2.69;78.45;101388.16;4995058;28;20065;-75
2021/03/19 07:33:55;;;;;;;21.02;13.02;;;;;;;2.91;75.94;101372.25;4995178;28;20121;-75
2021/03/19 07:37:00;;;;;;;21.17;12.77;;;;;;;2.79;76.77;101387.16;4994461;28;20149;-75
2021/03/19 07:39:52;;;;;;;23.42;13.98;;;;;;;2.68;77.04;101389.03;5001771;28;20065;-76
2021/03/19 07:42:44;;;;;;;25.52;15.50;;;;;;;1.55;82.18;101392.13;4987570;28;20161;-76
2021/03/19 07:45:42;;;;;;;22.15;13.20;;;;;;;1.29;83.61;101403.59;4990664;28;20708;-74
2021/03/19 07:48:23;;;;;;;30.58;17.05;;;;;;;1.23;84.59;101401.91;5015210;28;20131;-75
2021/03/19 07:51:12;;;;;;;25.45;14.85;;;;;;;1.32;83.36;101397.53;5002550;28;20584;-75
2021/03/19 07:53:58;;;;;;;25.02;15.25;;;;;;;1.69;82.49;101398.91;4995326;28;20081;-76
2021/03/19 07:56:40;;;;;;;;;;;;;;;2.44;81.29;101400.66;4996885;28;20058;-75
2021/03/19 07:59:11;;;;;;;23.17;14.32;;;;;;;2.64;78.55;101410.75;4989467;28;20002;-75
2021/03/19 08:01:50;;;;;;;20.70;12.40;;;;;;;3.35;75.95;101407.97;4993826;28;20413;-73
2021/03/19 08:04:31;;;;;;;19.20;12.02;;;;;;;3.59;74.43;101413.63;4994080;28;20510;-76
2021/03/19 08:07:19;;;;;;;20.48;11.75;;;;;;;4.68;71.43;101409.75;4981454;28;20362;-74
2021/03/19 08:09:55;;;;;;;18.10;11.48;;;;;;;4.06;72.19;101423.19;5002361;28;20058;-75
2021/03/19 08:12:30;;;;;;;16.40;10.93;;;;;;;4.67;71.28;101418.47;5014089;28;20667;-75
2021/03/19 08:15:19;;;;;;;18.05;11.02;;;;;;;3.43;74.63;101429.53;4979737;28;20584;-74
2021/03/19 08:18:09;;;;;;;22.02;12.07;;;;;;;2.75;77.57;101431.44;5014191;28;20054;-74
2021/03/19 08:20:59;;;;;;;23.67;12.05;;;;;;;2.53;79.72;101434.31;4997504;28;20845;-74
2021/03/19 08:23:39;;;;;;;16.45;10.15;;;;;;;3.12;77.67;101428.28;4990568;28;20070;-74
2021/03/19 08:26:15;;;;;;;20.20;11.45;;;;;;;2.89;78.13;101428.63;5009579;28;20111;-74
2021/03/19 08:29:07;;;;;;;20.58;11.13;;;;;;;2.86;79.38;101432.13;4995440;28;20060;-74
2021/03/19 08:31:48;;;;;;;22.42;11.48;;;;;;;2.89;79.74;101436.44;4984073;28;20057;-74
2021/03/19 08:34:15;;;;;;;29.00;12.10;;;;;;;2.38;83.28;101436.22;4982820;28;20053;-74
2021/03/19 08:36:47;;;;;;;16.92;11.63;;;;;;;2.25;84.72;101438.09;5009432;28;20699;-74
2021/03/19 08:39:34;;;;;;;17.10;10.07;;;;;;;2.24;84.12;101441.59;5014646;28;20128;-73
2021/03/19 08:42:04;;;;;;;22.10;11.50;;;;;;;1.38;89.57;101445.03;5010701;28;20133;-75
2021/03/19 08:44:36;;;;;;;20.92;11.45;;;;;;;1.44;89.76;101444.09;5003317;28;20057;-75
2021/03/19 08:47:25;;;;;;;21.77;12.95;;;;;;;1.43;91.25;101444.97;4982983;28;20058;-75
2021/03/19 08:49:55;;;;;;;22.58;11.57;;;;;;;0.79;94.09;101441.09;5015302;28;20700;-75
2021/03/19 08:52:35;;;;;;;20.52;10.77;;;;;;;0.39;96.57;101449.06;4976014;28;20567;-75
2021/03/19 08:55:14;;;;;;;23.88;12.43;;;;;;;0.48;97.04;101450.75;5008565;28;20065;-75
2021/03/19 08:57:47;;;;;;;22.13;11.23;;;;;;;0.40;98.62;101455.09;4999196;28;20691;-75
2021/03/19 09:00:25;;;;;;;19.15;10.75;;;;;;;0.49;97.95;101455.06;5003419;28;20559;-75
2021/03/19 09:02:55;;;;;;;19.15;11.07;;;;;;;0.78;97.13;101459.28;4983680;28;20057;-75
2021/03/19 09:05:34;;;;;;;21.67;11.73;;;;;;;0.69;96.78;101458.44;5012356;28;20533;-74
2021/03/19 09:08:28;;;;;;;19.40;12.07;;;;;;;0.86;96.94;101463.53;4995002;28;20057;-76
2021/03/19 09:10:54;;;;;;;20.65;11.93;;;;;;;0.87;96.09;101465.25;4989287;28;20488;-74
2021/03/19 09:13:23;;;;;;;23.80;12.80;;;;;;;1.66;93.83;101466.41;4992719;28;20060;-75
2021/03/19 09:15:54;;;;;;;21.45;12.15;;;;;;;1.89;92.71;101461.03;4981328;28;20060;-75
2021/03/19 09:18:45;;;;;;;25.05;11.70;;;;;;;2.23;90.14;101465.84;4993858;28;20644;-75
2021/03/19 09:21:37;;;;;;;19.73;11.43;;;;;;;2.20;89.48;101466.72;4970454;28;20041;-75
2021/03/19 09:24:14;;;;;;;19.40;10.95;;;;;;;2.29;88.57;101461.44;4985534;28;20065;-75
2021/03/19 09:26:52;;;;;;;19.52;11.40;;;;;;;2.07;91.14;101462.53;4998830;28;20057;-74
2021/03/19 09:29:18;;;;;;;17.95;9.52;;;;;;;2.96;86.49;101466.66;4983863;28;20045;-75
2021/03/19 09:31:52;;;;;;;16.67;9.82;;;;;;;3.03;86.64;101470.91;4995675;28;20064;-75
2021/03/19 09:34:21;;;;;;;15.77;7.88;;;;;;;2.49;86.45;101469.00;4999238;28;20131;-75
2021/03/19 09:37:00;;;;;;;12.15;7.63;;;;;;;2.84;84.48;101482.44;5003570;28;20064;-74
2021/03/19 09:39:45;;;;;;;12.70;8.00;;;;;;;3.05;84.66;101476.94;5013432;28;20049;-75
2021/03/19 09:42:17;;;;;;;10.93;7.03;;;;;;;2.53;86.66;101478.50;5013391;28;20045;-74
2021/03/19 09:44:44;;;;;;;12.52;7.63;;;;;;;2.97;86.05;101479.66;4995514;28;20528;-76
2021/03/19 09:47:11;;;;;;;11.30;6.60;;;;;;;3.44;84.65;101488.50;5011429;28;20052;-76
2021/03/19 09:49:38;;;;;;;11.10;6.43;;;;;;;2.98;84.16;101485.72;4996014;28;20053;-76
2021/03/19 09:52:13;;;;;;;9.13;5.78;;;;;;;2.83;84.76;101491.97;5011424;28;20107;-76
2021/03/19 09:54:41;;;;;;;10.15;6.15;;;;;;;2.37;86.64;101489.94;5000041;28;20279;-76
2021/03/19 09:57:22;;;;;;;9.77;5.82;;;;;;;2.23;86.55;101497.03;5008747;28;20060;-76
2021/03/19 09:59:57;;;;;;;9.93;5.47;;;;;;;2.18;87.25;101498.81;5009075;28;20427;-75
2021/03/19 10:02:38;;;;;;;10.52;5.38;;;;;;;2.17;88.47;101494.50;5014657;28;20061;-75
2021/03/19 10:05:08;;;;;;;7.93;4.68;;;;;;;2.90;86.30;101492.78;5009533;28;20349;-76
2021/03/19 10:07:35;;;;;;;12.05;5.75;;;;;;;3.17;84.83;101496.72;4983458;28;20062;-74
2021/03/19 10:10:04;;;;;;;9.40;5.68;;;;;;;2.96;86.33;101509.13;5014616;28;20049;-75
2021/03/19 10:12:35;;;;;;;7.88;4.78;;;;;;;2.78;84.85;101493.78;4983085;28;20079;-74
2021/03/19 10:15:28;;;;;;;9.10;5.13;;;;;;;2.16;86.39;101484.97;5013249;28;20085;-74
2021/03/19 10:17:57;;;;;;;8.80;4.18;;;;;;;2.15;87.49;101484.09;4985806;28;20073;-75
2021/03/19 10:20:29;;;;;;;7.45;4.35;;;;;;;1.90;87.12;101501.69;5011924;28;20117;-74
2021/03/19 10:23:23;;;;;;;7.70;4.50;;;;;;;1.82;89.04;101495.69;5014127;28;20057;-75
2021/03/19 10:25:51;;;;;;;6.95;3.97;;;;;;;1.73;90.00;101496.63;5007324;28;20057;-76
2021/03/19 10:28:25;;;;;;;8.55;4.95;;;;;;;1.92;90.44;101499.91;4992112;28;20054;-74
2021/03/19 10:30:56;;;;;;;8.68;5.13;;;;;;;2.25;90.26;101497.84;5019229;28;20525;-75
2021/03/19 10:33:31;;;;;;;8.13;4.72;;;;;;;2.25;90.91;101495.25;5013726;28;20058;-76
2021/03/19 10:36:09;;;;;;;8.43;4.15;;;;;;;2.27;89.90;101480.53;5003612;28;20054;-76
2021/03/19 10:38:51;;;;;;;8.60;4.38;;;;;;;2.33;88.49;101488.25;5018384;28;20059;-76
2021/03/19 10:41:30;;;;;;;6.47;3.58;;;;;;;2.50;87.16;101481.13;5019458;28;20149;-75
2021/03/19 10:44:19;;;;;;;7.82;3.53;;;;;;;2.90;85.19;101483.22;5017307;28;20045;-74
2021/03/19 10:46:51;;;;;;;6.32;3.40;;;;;;;3.57;82.64;101476.16;4989401;28;20054;-75
2021/03/19 10:49:22;;;;;;;7.90;2.92;;;;;;;4.09;77.02;101470.00;5018109;28;20136;-76
2021/03/19 10:52:00;;;;;;;4.38;2.55;;;;;;;4.04;73.87;101471.84;4984102;28;20060;-75
2021/03/19 10:54:39;;;;;;;6.85;2.60;;;;;;;3.76;75.99;101474.09;4998456;28;20217;-74
2021/03/19 10:57:23;;;;;;;5.55;2.30;;;;;;;3.51;75.31;101477.13;4996609;28;20098;-75
2021/03/19 10:59:54;;;;;;;5.97;2.30;;;;;;;3.41;77.40;101482.47;5014893;28;20050;-75
2021/03/19 11:02:28;;;;;;;6.80;2.45;;;;;;;3.49;77.16;101494.50;4973501;28;20049;-76
2021/03/19 11:04:56;;;;;;;5.68;2.92;;;;;;;3.27;75.59;101493.97;4973031;28;20138;-76
2021/03/19 11:07:26;;;;;;;9.32;3.45;;;;;;;2.99;75.83;101493.50;5003989;28;20057;-76
2021/03/19 11:10:19;;;;;;;9.55;3.15;;;;;;;2.98;75.95;101490.94;5022075;28;20057;-75
2021/03/19 11:13:18;;;;;;;6.75;3.25;;;;;;;3.09;74.97;101495.97;5017690;28;21197;-74
2021/03/19 11:15:50;;;;;;;7.43;3.17;;;;;;;3.27;73.38;101493.97;4983264;28;20045;-75
2021/03/19 11:18:39;;;;;;;9.52;2.47;;;;;;;3.90;70.22;101492.94;5000712;28;20453;-75
2021/03/19 11:21:07;;;;;;;7.07;3.10;;;;;;;3.78;72.13;101487.94;4987916;28;20063;-75
2021/03/19 11:23:38;;;;;;;6.55;1.73;;;;;;;3.45;70.37;101521.44;5018364;28;20515;-74
2021/03/19 11:26:28;;;;;;;4.18;2.00;;;;;;;3.40;70.76;101502.44;5016757;28;20061;-75
2021/03/19 11:29:13;;;;;;;7.40;2.58;;;;;;;3.11;74.13;101513.28;5033976;23;20125;-73
2021/03/19 11:32:15;;;;;;;3.47;0.95;;;;;;;2.73;68.14;101531.97;5023187;28;20050;-74
2021/03/19 11:34:45;;;;;;;2.95;1.02;;;;;;;2.55;67.15;101507.06;5005118;28;20153;-73
2021/03/19 11:37:18;;;;;;;4.55;1.48;;;;;;;2.69;67.11;101499.94;5007815;28;20061;-74
2021/03/19 11:39:52;;;;;;;2.50;1.17;;;;;;;3.24;65.89;101514.84;5035197;28;20053;-72
2021/03/19 11:42:35;;;;;;;5.30;1.63;;;;;;;3.90;64.94;101500.75;5024017;28;20331;-72
2021/03/19 11:45:16;;;;;;;5.18;2.13;;;;;;;3.70;63.99;101501.09;5007927;28;20105;-72
2021/03/19 11:47:57;;;;;;;6.57;1.92;;;;;;;3.42;63.08;101510.22;4993959;28;20436;-74
2021/03/19 11:50:41;;;;;;;3.40;1.20;;;;;;;3.15;63.48;101511.47;5028622;28;20127;-73
2021/03/19 11:53:24;;;;;;;7.80;1.80;;;;;;;3.45;62.38;101508.44;5020706;28;20655;-72